Terminal Aerodrome Forecast
Issued by NWS

Home | Current Version | Previous Version | Graphics & Text | Print | Product List | Glossary On
Versions: 1 2 3 4 5 6 7 8 9 10 11 12 13 14 15 16 17 18 19
000
FTUS43 KMPX 260600 AAA
TAFRNH
TAF AMD
KRNH 260649Z 2607/2706 03005KT 4SM BR SCT015 OVC040
     FM261000 01007KT 3SM BR OVC006
     FM261800 35008KT 6SM BR OVC015
     FM270300 35006KT 4SM -SN BR OVC012=

USA.gov is the U.S. government's official web portal to all federal, state and local government web resources and services.